createdAt,value
2023-12-20T00:01:25.336Z,5.43
2023-12-20T00:03:53.320Z,4.33
2023-12-20T00:06:21.209Z,5.10
2023-12-20T00:08:49.257Z,5.23
2023-12-20T00:11:16.934Z,4.80
2023-12-20T00:13:53.449Z,4.70
2023-12-20T00:16:23.871Z,4.80
2023-12-20T00:18:54.706Z,4.13
2023-12-20T00:21:22.346Z,4.13
2023-12-20T00:23:50.039Z,3.73
2023-12-20T00:26:17.768Z,3.47
2023-12-20T00:28:45.361Z,3.80
2023-12-20T00:31:13.315Z,3.57
2023-12-20T00:33:45.413Z,4.27
2023-12-20T00:36:14.065Z,4.00
2023-12-20T00:38:42.275Z,3.70
2023-12-20T00:41:09.967Z,3.03
2023-12-20T00:43:38.197Z,3.20
2023-12-20T00:46:07.451Z,2.10
2023-12-20T00:48:35.072Z,2.50
2023-12-20T00:51:03.063Z,2.20
2023-12-20T00:53:30.829Z,1.90
2023-12-20T00:56:00.461Z,1.73
2023-12-20T00:58:29.599Z,1.90
2023-12-20T01:00:57.638Z,1.80
2023-12-20T01:03:25.980Z,1.50
2023-12-20T01:05:55.202Z,1.60
2023-12-20T01:08:23.084Z,1.57
2023-12-20T01:10:51.030Z,1.27
2023-12-20T01:13:19.057Z,1.33
2023-12-20T01:15:47.031Z,1.60
2023-12-20T01:18:15.415Z,1.50
2023-12-20T01:20:44.224Z,1.70
2023-12-20T01:23:14.686Z,1.23
2023-12-20T01:25:42.900Z,1.53
2023-12-20T01:28:10.894Z,1.20
2023-12-20T01:30:42.153Z,1.23
2023-12-20T01:33:13.219Z,1.20
2023-12-20T01:35:41.223Z,0.97
2023-12-20T01:38:10.817Z,1.10
2023-12-20T01:40:38.749Z,0.90
2023-12-20T01:43:11.179Z,1.07
2023-12-20T01:45:39.013Z,0.70
2023-12-20T01:48:08.165Z,0.97
2023-12-20T01:50:37.900Z,1.00
2023-12-20T01:53:07.804Z,1.30
2023-12-20T01:55:37.073Z,0.80
2023-12-20T01:58:05.574Z,0.90
2023-12-20T02:00:33.574Z,0.80
2023-12-20T02:03:04.003Z,0.90
2023-12-20T02:05:33.383Z,0.90
2023-12-20T02:08:01.428Z,0.90
2023-12-20T02:10:31.370Z,0.70
2023-12-20T02:12:58.859Z,0.60
2023-12-20T02:15:26.117Z,1.20
2023-12-20T02:17:53.610Z,1.30
2023-12-20T02:20:21.819Z,1.30
2023-12-20T02:22:49.015Z,0.80
2023-12-20T02:25:16.223Z,1.10
2023-12-20T02:27:43.635Z,0.70
2023-12-20T02:30:12.737Z,1.00
2023-12-20T02:32:40.043Z,1.00
2023-12-20T02:35:10.460Z,0.73
2023-12-20T02:37:40.657Z,1.40
2023-12-20T02:40:08.511Z,0.80
2023-12-20T02:42:35.631Z,0.70
2023-12-20T02:45:02.839Z,0.77
2023-12-20T02:47:31.195Z,0.70
2023-12-20T02:49:58.474Z,0.80
2023-12-20T02:52:25.896Z,0.97
2023-12-20T02:54:53.095Z,0.90
2023-12-20T02:57:20.285Z,0.80
2023-12-20T02:59:47.502Z,0.80
2023-12-20T03:02:14.787Z,1.00
2023-12-20T03:04:42.236Z,1.00
2023-12-20T03:07:09.446Z,1.50
2023-12-20T03:09:47.885Z,1.20
2023-12-20T03:12:23.739Z,1.17
2023-12-20T03:14:51.157Z,1.30
2023-12-20T03:17:18.296Z,1.50
2023-12-20T03:19:45.535Z,1.50
2023-12-20T03:22:12.735Z,1.70
2023-12-20T03:24:39.863Z,1.30
2023-12-20T03:27:07.057Z,1.40
2023-12-20T03:29:34.191Z,1.33
2023-12-20T03:32:01.423Z,1.30
2023-12-20T03:34:28.557Z,1.53
2023-12-20T03:36:55.895Z,1.60
2023-12-20T03:39:23.032Z,1.70
2023-12-20T03:41:50.090Z,1.50
2023-12-20T03:44:17.147Z,1.40
2023-12-20T03:46:44.204Z,1.83
2023-12-20T03:49:13.986Z,1.57
2023-12-20T03:51:41.398Z,1.30
2023-12-20T03:54:08.981Z,1.77
2023-12-20T03:56:36.192Z,1.70
2023-12-20T03:59:04.917Z,1.60
2023-12-20T04:01:32.090Z,1.77
2023-12-20T04:03:59.283Z,1.60
2023-12-20T04:06:26.653Z,1.40
2023-12-20T04:08:56.196Z,1.47
2023-12-20T04:11:25.853Z,1.43
2023-12-20T04:13:52.974Z,1.80
2023-12-20T04:16:22.561Z,1.67
2023-12-20T04:18:49.792Z,1.60
2023-12-20T04:21:16.926Z,3.13
2023-12-20T04:23:44.242Z,1.87
2023-12-20T04:26:11.826Z,1.97
2023-12-20T04:28:38.955Z,1.80
2023-12-20T04:31:08.909Z,1.70
2023-12-20T04:33:36.198Z,3.27
2023-12-20T04:36:03.435Z,10.20
2023-12-20T04:38:30.598Z,4.70
2023-12-20T04:40:58.043Z,3.53
2023-12-20T04:43:25.676Z,2.40
2023-12-20T04:45:56.370Z,2.90
2023-12-20T04:48:23.548Z,2.17
2023-12-20T04:50:53.895Z,2.73
2023-12-20T04:53:21.040Z,2.30
2023-12-20T04:55:50.718Z,2.47
2023-12-20T04:58:18.022Z,2.53
2023-12-20T05:00:45.297Z,3.13
2023-12-20T05:03:12.748Z,3.30
2023-12-20T05:05:40.561Z,3.10
2023-12-20T05:08:10.613Z,2.70
2023-12-20T05:10:41.656Z,2.20
2023-12-20T05:13:09.248Z,2.90
2023-12-20T05:15:39.532Z,2.40
2023-12-20T05:18:06.903Z,2.90
2023-12-20T05:20:36.022Z,2.20
2023-12-20T05:23:03.376Z,2.53
2023-12-20T05:25:30.710Z,2.83
2023-12-20T05:27:57.909Z,3.17
2023-12-20T05:30:25.406Z,2.87
2023-12-20T05:32:52.627Z,2.23
2023-12-20T05:35:20.583Z,3.10
2023-12-20T05:37:47.943Z,5.30
2023-12-20T05:40:15.355Z,2.87
2023-12-20T05:42:42.567Z,2.10
2023-12-20T05:45:10.651Z,2.70
2023-12-20T05:47:37.924Z,2.30
2023-12-20T05:50:05.437Z,2.47
2023-12-20T05:52:32.537Z,2.97
2023-12-20T05:55:02.541Z,2.33
2023-12-20T05:57:29.792Z,2.70
2023-12-20T05:59:57.088Z,2.50
2023-12-20T06:02:24.209Z,2.60
2023-12-20T06:04:51.345Z,3.10
2023-12-20T06:07:18.680Z,2.47
2023-12-20T06:09:46.214Z,2.43
2023-12-20T06:12:13.349Z,3.00
2023-12-20T06:14:40.548Z,3.07
2023-12-20T06:17:08.024Z,2.80
2023-12-20T06:19:35.199Z,2.80
2023-12-20T06:22:02.360Z,2.53
2023-12-20T06:24:29.638Z,2.40
2023-12-20T06:26:56.882Z,3.40
2023-12-20T06:29:24.007Z,2.60
2023-12-20T06:31:51.234Z,2.60
2023-12-20T06:34:18.631Z,2.97
2023-12-20T06:36:45.920Z,4.43
2023-12-20T06:39:13.995Z,3.43
2023-12-20T06:41:41.349Z,2.60
2023-12-20T06:44:11.224Z,2.70
2023-12-20T06:46:38.337Z,3.33
2023-12-20T06:49:05.499Z,2.47
2023-12-20T06:51:32.831Z,3.30
2023-12-20T06:54:03.965Z,3.13
2023-12-20T06:56:33.874Z,2.40
2023-12-20T06:59:01.004Z,2.93
2023-12-20T07:01:28.258Z,3.93
2023-12-20T07:03:55.548Z,3.20
2023-12-20T07:06:24.116Z,3.87
2023-12-20T07:08:53.181Z,3.13
2023-12-20T07:11:20.460Z,2.37
2023-12-20T07:13:47.527Z,3.60
2023-12-20T07:16:14.655Z,3.90
2023-12-20T07:18:42.025Z,2.70
2023-12-20T07:21:09.350Z,2.90
2023-12-20T07:23:36.428Z,2.77
2023-12-20T07:26:03.810Z,2.67
2023-12-20T07:28:32.195Z,2.77
2023-12-20T07:31:02.336Z,2.90
2023-12-20T07:33:38.759Z,4.63
2023-12-20T07:36:08.802Z,3.30
2023-12-20T07:38:40.753Z,2.70
2023-12-20T07:41:13.718Z,3.30
2023-12-20T07:43:49.016Z,2.90
2023-12-20T07:46:26.970Z,4.27
2023-12-20T07:49:00.014Z,7.40
2023-12-20T07:51:33.692Z,4.40
2023-12-20T07:54:05.794Z,3.10
2023-12-20T07:56:38.913Z,3.80
2023-12-20T07:59:25.954Z,3.33
2023-12-20T08:02:02.218Z,4.40
2023-12-20T08:04:34.548Z,3.93
2023-12-20T08:07:02.759Z,4.13
2023-12-20T08:09:31.908Z,5.60
2023-12-20T08:12:01.255Z,2.90
2023-12-20T08:14:29.664Z,3.27
2023-12-20T08:17:02.100Z,4.33
2023-12-20T08:19:33.839Z,3.00
2023-12-20T08:22:01.756Z,4.77
2023-12-20T08:24:30.839Z,5.53
2023-12-20T08:26:58.869Z,4.50
2023-12-20T08:29:26.268Z,4.03
2023-12-20T08:31:55.426Z,3.50
2023-12-20T08:34:23.097Z,4.23
2023-12-20T08:36:52.612Z,4.67
2023-12-20T08:39:20.328Z,3.90
2023-12-20T08:41:47.696Z,6.33
2023-12-20T08:44:15.065Z,3.70
2023-12-20T08:46:42.297Z,5.03
2023-12-20T08:49:11.403Z,3.93
2023-12-20T08:51:44.448Z,4.27
2023-12-20T08:54:11.836Z,3.63
2023-12-20T08:56:39.332Z,4.00
2023-12-20T08:59:11.862Z,3.40
2023-12-20T09:01:39.220Z,3.93
2023-12-20T09:04:07.881Z,3.93
2023-12-20T09:06:38.567Z,3.50
2023-12-20T09:09:06.127Z,3.67
2023-12-20T09:11:33.548Z,3.80
2023-12-20T09:14:00.969Z,5.60
2023-12-20T09:16:28.473Z,7.13
2023-12-20T09:18:55.914Z,5.37
2023-12-20T09:21:23.316Z,4.43
2023-12-20T09:23:50.963Z,4.30
2023-12-20T09:26:18.189Z,4.10
2023-12-20T09:28:45.432Z,3.50
2023-12-20T09:31:12.607Z,3.53
2023-12-20T09:33:39.814Z,3.80
2023-12-20T09:36:07.474Z,3.50
2023-12-20T09:38:34.906Z,3.53
2023-12-20T09:41:05.154Z,3.03
2023-12-20T09:43:32.514Z,4.37
2023-12-20T09:46:03.650Z,3.40
2023-12-20T09:48:31.746Z,3.43
2023-12-20T09:50:59.008Z,3.93
2023-12-20T09:53:30.410Z,3.00
2023-12-20T09:56:03.969Z,4.33
2023-12-20T09:58:31.135Z,3.30
2023-12-20T10:00:58.421Z,3.27
2023-12-20T10:03:27.689Z,3.50
2023-12-20T10:05:58.148Z,4.53
2023-12-20T10:08:25.852Z,4.10
2023-12-20T10:10:53.248Z,4.00
2023-12-20T10:13:20.417Z,3.70
2023-12-20T10:15:47.697Z,3.07
2023-12-20T10:18:15.063Z,4.00
2023-12-20T10:20:44.037Z,3.43
2023-12-20T10:23:12.199Z,3.03
2023-12-20T10:25:39.453Z,3.10
2023-12-20T10:28:28.639Z,3.83
2023-12-20T10:30:59.763Z,3.53
2023-12-20T10:33:28.586Z,3.27
2023-12-20T10:35:57.018Z,3.70
2023-12-20T10:38:24.864Z,3.20
2023-12-20T10:40:56.190Z,2.93
2023-12-20T10:43:24.160Z,3.20
2023-12-20T10:45:51.495Z,3.70
2023-12-20T10:48:18.976Z,2.97
2023-12-20T10:50:46.450Z,2.83
2023-12-20T10:53:14.389Z,3.83
2023-12-20T10:55:41.725Z,3.60
2023-12-20T10:58:10.239Z,3.67
2023-12-20T11:00:44.576Z,3.43
2023-12-20T11:03:13.360Z,2.80
2023-12-20T11:05:55.049Z,3.47
2023-12-20T11:08:29.956Z,3.93
2023-12-20T11:11:07.831Z,3.77
2023-12-20T11:13:38.681Z,2.90
2023-12-20T11:16:07.191Z,3.50
2023-12-20T11:18:34.582Z,3.20
2023-12-20T11:21:04.546Z,5.07
2023-12-20T11:23:34.925Z,6.03
2023-12-20T11:26:02.973Z,3.67
2023-12-20T11:28:33.791Z,3.40
2023-12-20T11:31:05.438Z,2.90
2023-12-20T11:33:37.662Z,3.50
2023-12-20T11:36:05.290Z,4.50
2023-12-20T11:38:39.070Z,3.30
2023-12-20T11:41:09.454Z,3.83
2023-12-20T11:43:40.687Z,3.73
2023-12-20T11:46:11.511Z,3.00
2023-12-20T11:48:39.858Z,3.50
2023-12-20T11:51:11.404Z,4.10
2023-12-20T11:53:38.846Z,4.20
2023-12-20T11:56:07.726Z,3.30
2023-12-20T11:58:35.291Z,3.10
2023-12-20T12:01:06.166Z,4.53
2023-12-20T12:03:34.055Z,4.40
2023-12-20T12:06:02.191Z,4.87
2023-12-20T12:08:29.270Z,3.87
2023-12-20T12:10:56.342Z,4.33
2023-12-20T12:13:23.457Z,3.30
2023-12-20T12:15:51.397Z,3.57
2023-12-20T12:18:18.796Z,4.40
2023-12-20T12:20:45.930Z,3.87
2023-12-20T12:23:13.057Z,3.80
2023-12-20T12:25:42.812Z,4.63
2023-12-20T12:28:11.688Z,3.77
2023-12-20T12:30:43.157Z,4.00
2023-12-20T12:33:14.036Z,3.60
2023-12-20T12:35:44.678Z,3.67
2023-12-20T12:38:17.025Z,4.20
2023-12-20T12:40:45.059Z,4.60
2023-12-20T12:43:12.121Z,3.23
2023-12-20T12:45:39.179Z,3.43
2023-12-20T12:48:10.576Z,3.57
2023-12-20T12:50:37.645Z,3.10
2023-12-20T12:53:04.919Z,3.97
2023-12-20T12:55:32.125Z,3.20
2023-12-20T12:57:59.248Z,3.50
2023-12-20T13:00:27.405Z,3.00
2023-12-20T13:02:57.757Z,2.87
2023-12-20T13:05:25.005Z,2.60
2023-12-20T13:07:52.806Z,3.00
2023-12-20T13:10:19.993Z,2.83
2023-12-20T13:12:47.320Z,2.30
2023-12-20T13:15:14.722Z,2.30
2023-12-20T13:17:45.197Z,2.47
2023-12-20T13:20:12.717Z,2.73
2023-12-20T13:22:39.843Z,2.10
2023-12-20T13:25:07.639Z,2.00
2023-12-20T13:27:34.895Z,1.87
2023-12-20T13:30:02.279Z,1.97
2023-12-20T13:32:31.073Z,1.50
2023-12-20T13:34:58.550Z,1.60
2023-12-20T13:37:26.232Z,2.43
2023-12-20T13:39:53.406Z,1.63
2023-12-20T13:42:21.742Z,1.87
2023-12-20T13:44:49.014Z,1.10
2023-12-20T13:47:16.038Z,1.10
2023-12-20T13:49:43.156Z,0.87
2023-12-20T13:52:10.278Z,1.30
2023-12-20T13:54:37.274Z,0.83
2023-12-20T13:57:12.189Z,0.97
2023-12-20T13:59:43.920Z,1.20
2023-12-20T14:02:11.057Z,1.27
2023-12-20T14:04:43.116Z,0.80
2023-12-20T14:07:13.093Z,0.80
2023-12-20T14:09:47.237Z,0.97
2023-12-20T14:12:15.185Z,1.05
2023-12-20T14:14:42.508Z,0.70
2023-12-20T14:17:10.372Z,0.60
2023-12-20T14:19:41.075Z,1.00
2023-12-20T14:22:08.343Z,1.00
2023-12-20T14:24:37.317Z,1.00
2023-12-20T14:27:04.532Z,0.97
2023-12-20T14:29:31.601Z,1.50
2023-12-20T14:32:00.864Z,1.00
2023-12-20T14:34:28.293Z,1.00
2023-12-20T14:36:55.647Z,0.90
2023-12-20T14:39:24.227Z,1.00
2023-12-20T14:41:51.391Z,1.70
2023-12-20T14:44:19.019Z,1.10
2023-12-20T14:46:46.053Z,1.63
2023-12-20T14:49:13.373Z,0.80
2023-12-20T14:51:40.431Z,1.17
2023-12-20T14:54:11.785Z,1.00
2023-12-20T14:56:39.011Z,1.20
2023-12-20T14:59:09.457Z,1.07
2023-12-20T15:04:05.451Z,1.30
2023-12-20T15:06:33.657Z,1.93
2023-12-20T15:09:01.336Z,2.17
2023-12-20T15:11:28.478Z,1.17
2023-12-20T15:13:59.374Z,1.40
2023-12-20T15:16:26.957Z,1.37
2023-12-20T15:18:56.283Z,1.63
2023-12-20T15:21:32.601Z,1.43
2023-12-20T15:24:15.387Z,2.30
2023-12-20T15:26:43.873Z,2.10
2023-12-20T15:29:13.263Z,2.60
2023-12-20T15:31:45.315Z,4.70
2023-12-20T15:34:12.655Z,3.47
2023-12-20T15:36:40.556Z,3.00
2023-12-20T15:39:09.992Z,3.13
2023-12-20T15:41:37.059Z,2.90
2023-12-20T15:44:04.194Z,1.90
2023-12-20T15:46:31.335Z,10.23
2023-12-20T15:48:58.484Z,2.70
